Dubuque Regional Airport
Tuesday 10:53 PM
Temperature56° (74°/54°)
Dew Point54°
Relative Humidity93
%
Visibility10
mi
Pressure1019.3
mb
Wind Direction
Wind SpeedCalm
Precipitation Today0.00"

Terminal Aerodrome Forecast

021 
FTUS43 KDVN 042328
TAFDBQ
TAF
KDBQ 042328Z 0500/0524 33008KT P6SM SCT060 BKN080
     FM050100 VRB03KT P6SM FEW060
     FM051900 22006KT P6SM SCT035=

Last 30 Observations

Time PresWx Temp DP Feels RH% Vsby Pressure Ceiling Direction Speed 1h Precip